Time;durP1;ratioP1;P1;durP2;ratioP2;P2;SDS_P1;SDS_P2;PMS_P1;PMS_P2;Temp;Humidity;BMP_temperature;BMP_pressure;BME280_temperature;BME280_humidity;BME280_pressure;Samples;Min_cycle;Max_cycle;Signal;HPM_P1;HPM_P2
2021/11/26 00:00:27;;;;;;;51.28;29.80;;;179.30;2252.80;;;;;;4826041;29;20385;-67
2021/11/26 00:02:53;;;;;;;36.60;23.33;;;179.30;2252.80;;;;;;4825896;29;20057;-67
2021/11/26 00:05:19;;;;;;;31.48;20.75;;;179.30;2252.80;;;;;;4809779;29;20043;-68
2021/11/26 00:07:45;;;;;;;35.92;22.83;;;179.30;2252.80;;;;;;4826129;29;20035;-67
2021/11/26 00:10:11;;;;;;;33.47;22.48;;;179.30;2252.80;;;;;;4826434;29;20445;-67
2021/11/26 00:12:37;;;;;;;34.78;21.33;;;179.30;2252.80;;;;;;4826505;29;20074;-67
2021/11/26 00:15:13;;;;;;;36.30;21.23;;;179.30;2252.80;;;;;;4825945;29;20097;-67
2021/11/26 00:17:48;;;;;;;33.92;21.02;;;179.30;2252.80;;;;;;4825973;29;20105;-68
2021/11/26 00:20:14;;;;;;;31.70;21.58;;;179.30;2252.80;;;;;;4825917;29;20030;-67
2021/11/26 00:22:40;;;;;;;38.42;22.00;;;179.20;2252.80;;;;;;4825870;29;20034;-67
2021/11/26 00:25:08;;;;;;;31.75;21.27;;;179.20;2252.80;;;;;;4826109;29;20070;-68
2021/11/26 00:27:34;;;;;;;33.58;21.65;;;179.20;2252.80;;;;;;4825806;29;20480;-67
2021/11/26 00:30:00;;;;;;;30.60;21.33;;;179.30;2252.80;;;;;;4825801;29;20033;-68
2021/11/26 00:32:25;;;;;;;43.47;20.85;;;179.30;2252.80;;;;;;4825586;29;20030;-67
2021/11/26 00:34:51;;;;;;;31.60;20.83;;;179.20;2252.80;;;;;;4825705;29;20037;-68
2021/11/26 00:37:18;;;;;;;30.27;20.38;;;179.30;2252.80;;;;;;4825764;29;20472;-68
2021/11/26 00:39:44;;;;;;;33.10;21.13;;;179.30;2252.80;;;;;;4809234;29;20057;-68
2021/11/26 00:42:10;;;;;;;36.78;21.20;;;179.30;2252.80;;;;;;4825602;29;20023;-68
2021/11/26 00:44:36;;;;;;;29.35;20.25;;;179.20;2252.80;;;;;;4825541;29;20509;-68
2021/11/26 00:47:02;;;;;;;34.03;21.60;;;179.30;2252.80;;;;;;4825372;29;20054;-68
2021/11/26 00:49:28;;;;;;;35.90;21.48;;;179.30;2252.80;;;;;;4825480;29;20118;-68
2021/11/26 00:51:54;;;;;;;35.83;22.05;;;179.30;2252.80;;;;;;4825728;29;20030;-68
2021/11/26 00:54:20;;;;;;;33.60;21.50;;;179.30;2252.80;;;;;;4825354;29;20041;-68
2021/11/26 00:56:46;;;;;;;36.22;22.98;;;179.30;2252.80;;;;;;4825376;29;20026;-68
2021/11/26 00:59:12;;;;;;;36.03;23.13;;;179.30;2252.80;;;;;;4825315;29;20034;-68
2021/11/26 01:01:38;;;;;;;32.13;21.45;;;179.30;2252.80;;;;;;4825721;29;20071;-68
2021/11/26 01:04:04;;;;;;;31.90;21.58;;;179.30;2252.80;;;;;;4825265;29;20079;-68
2021/11/26 01:06:31;;;;;;;32.65;21.48;;;179.30;2252.80;;;;;;4825385;29;20026;-68
2021/11/26 01:08:58;;;;;;;40.35;24.15;;;179.30;2252.80;;;;;;4825170;29;20388;-68
2021/11/26 01:11:24;;;;;;;42.13;26.25;;;179.30;2252.80;;;;;;4825201;29;20495;-75
2021/11/26 01:13:50;;;;;;;33.97;21.85;;;179.20;2252.80;;;;;;4825045;29;20078;-69
2021/11/26 01:16:17;;;;;;;35.35;22.52;;;179.20;2252.80;;;;;;4810254;29;20026;-75
2021/11/26 01:18:43;;;;;;;36.92;22.85;;;179.30;2252.80;;;;;;4825992;29;20122;-67
2021/11/26 01:21:10;;;;;;;38.10;22.83;;;179.20;2252.80;;;;;;4824963;29;20380;-67
2021/11/26 01:23:37;;;;;;;35.33;22.30;;;179.30;2252.80;;;;;;4825344;29;20059;-67
2021/11/26 01:26:04;;;;;;;36.47;22.60;;;179.30;2252.80;;;;;;4824973;29;20023;-67
2021/11/26 01:28:29;;;;;;;35.38;21.08;;;179.30;2252.80;;;;;;4824809;29;20038;-68
2021/11/26 01:30:56;;;;;;;36.95;21.77;;;179.20;2252.80;;;;;;4824939;29;20038;-68
2021/11/26 01:33:22;;;;;;;32.60;21.13;;;179.20;2252.80;;;;;;4824773;29;20034;-68
2021/11/26 01:35:52;;;;;;;32.13;20.77;;;179.20;2252.80;;;;;;4825086;29;20119;-67
2021/11/26 01:38:19;;;;;;;31.83;22.38;;;179.20;2252.80;;;;;;4824814;29;20079;-68
2021/11/26 01:40:45;;;;;;;31.33;20.35;;;179.20;2252.80;;;;;;4824762;29;20034;-67
2021/11/26 01:43:14;;;;;;;35.00;22.77;;;179.30;2252.80;;;;;;4825265;29;20034;-68
2021/11/26 01:45:55;;;;;;;35.00;21.33;;;179.30;2252.80;;;;;;4824926;29;20055;-68
2021/11/26 01:48:23;;;;;;;30.70;20.92;;;179.30;2252.80;;;;;;4824522;29;20412;-67
2021/11/26 01:50:50;;;;;;;32.40;20.40;;;179.30;2252.80;;;;;;4824647;29;20034;-68
2021/11/26 01:53:17;;;;;;;30.95;20.10;;;179.30;2252.80;;;;;;4824657;29;20046;-67
2021/11/26 01:55:43;;;;;;;32.00;21.25;;;179.30;2252.80;;;;;;4824609;29;20091;-68
2021/11/26 01:58:12;;;;;;;33.30;20.75;;;179.30;2252.80;;;;;;4824539;29;20066;-68
2021/11/26 02:00:42;;;;;;;33.50;20.80;;;179.30;2252.80;;;;;;4824570;29;20033;-67
2021/11/26 02:03:08;;;;;;;32.20;21.15;;;179.30;2252.80;;;;;;4824553;29;20045;-68
2021/11/26 02:05:34;;;;;;;35.47;21.70;;;179.30;2252.80;;;;;;4824549;29;20030;-68
2021/11/26 02:08:00;;;;;;;32.60;21.65;;;179.40;2252.80;;;;;;4824749;29;20034;-68
2021/11/26 02:10:26;;;;;;;32.25;21.23;;;179.40;2252.80;;;;;;4824441;29;20495;-67
2021/11/26 02:12:52;;;;;;;36.60;21.77;;;179.40;2252.80;;;;;;4824591;29;20077;-68
2021/11/26 02:15:21;;;;;;;32.05;20.85;;;179.40;2252.80;;;;;;4824437;29;20113;-68
2021/11/26 02:17:52;;;;;;;42.28;23.45;;;179.40;2252.80;;;;;;4824485;29;20081;-67
2021/11/26 02:20:21;;;;;;;47.08;25.48;;;179.40;2252.80;;;;;;4824345;29;20018;-68
2021/11/26 02:22:48;;;;;;;45.55;25.40;;;179.40;2252.80;;;;;;4824331;29;20524;-68
2021/11/26 02:25:15;;;;;;;45.00;24.33;;;179.40;2252.80;;;;;;4826617;29;20026;-68
2021/11/26 02:27:42;;;;;;;40.80;21.40;;;179.40;2252.80;;;;;;4827730;29;20027;-67
2021/11/26 02:30:19;;;;;;;30.33;19.52;;;179.40;2252.80;;;;;;4827657;29;20030;-67
2021/11/26 02:32:56;;;;;;;29.42;19.50;;;179.50;2252.80;;;;;;4827569;29;20090;-74
2021/11/26 02:35:23;;;;;;;31.42;19.45;;;179.50;2252.80;;;;;;4827630;29;20502;-68
2021/11/26 02:37:49;;;;;;;32.28;20.05;;;179.50;2252.80;;;;;;4827572;29;20109;-67
2021/11/26 02:40:18;;;;;;;31.67;19.05;;;179.50;2252.80;;;;;;4827516;29;20444;-68
2021/11/26 02:42:45;;;;;;;30.25;19.67;;;179.60;2252.80;;;;;;4811191;29;20027;-67
2021/11/26 02:45:14;;;;;;;29.58;19.15;;;179.60;2252.80;;;;;;4827671;29;20029;-68
2021/11/26 02:47:40;;;;;;;29.55;19.58;;;179.60;2252.80;;;;;;4827162;29;20062;-67
2021/11/26 02:50:09;;;;;;;28.75;19.23;;;179.60;2252.80;;;;;;4827666;29;20117;-68
2021/11/26 02:52:37;;;;;;;29.33;18.70;;;179.60;2252.80;;;;;;4827302;29;20481;-67
2021/11/26 02:55:05;;;;;;;30.30;19.63;;;179.60;2252.80;;;;;;4827248;29;20034;-68
2021/11/26 02:57:31;;;;;;;29.27;19.58;;;179.60;2252.80;;;;;;4826019;29;20037;-67
2021/11/26 02:59:57;;;;;;;31.92;19.10;;;179.60;2252.80;;;;;;4827177;29;20030;-67
2021/11/26 03:02:23;;;;;;;29.73;18.92;;;179.60;2252.80;;;;;;4827174;29;20031;-68
2021/11/26 03:04:49;;;;;;;29.85;18.88;;;179.70;2252.80;;;;;;4827119;29;20072;-68
2021/11/26 03:07:15;;;;;;;29.98;19.25;;;179.70;2252.80;;;;;;4827383;29;20030;-67
2021/11/26 03:09:41;;;;;;;26.80;18.83;;;179.70;2252.80;;;;;;4827595;29;20464;-67
2021/11/26 03:12:08;;;;;;;29.10;17.83;;;179.70;2252.80;;;;;;4826973;29;20046;-67
2021/11/26 03:14:35;;;;;;;27.15;17.85;;;179.70;2252.80;;;;;;4826950;29;20042;-68
2021/11/26 03:17:02;;;;;;;29.65;18.67;;;179.70;2252.80;;;;;;4810609;29;20033;-68
2021/11/26 03:19:28;;;;;;;30.70;18.70;;;179.70;2252.80;;;;;;4828431;29;20094;-74
2021/11/26 03:21:54;;;;;;;29.40;18.20;;;179.80;2252.80;;;;;;4828991;29;20487;-74
2021/11/26 03:24:19;;;;;;;24.95;17.75;;;179.80;2252.80;;;;;;4829061;29;20047;-75
2021/11/26 03:26:45;;;;;;;26.15;17.70;;;179.90;2252.80;;;;;;4828637;29;20042;-75
2021/11/26 03:29:11;;;;;;;27.20;17.70;;;179.90;2252.80;;;;;;4827504;29;20041;-71
2021/11/26 03:31:38;;;;;;;28.48;17.92;;;179.90;2252.80;;;;;;4827091;29;20518;-69
2021/11/26 03:34:04;;;;;;;30.13;18.23;;;179.90;2252.80;;;;;;4827988;29;20042;-67
2021/11/26 03:36:30;;;;;;;30.25;18.85;;;180.00;2252.80;;;;;;4809203;29;20030;-67
2021/11/26 03:38:56;;;;;;;28.73;18.73;;;180.00;2252.80;;;;;;4826617;29;20536;-67
2021/11/26 03:41:22;;;;;;;36.50;20.90;;;180.00;2252.80;;;;;;4810151;29;20029;-75
2021/11/26 03:43:48;;;;;;;41.15;24.10;;;180.00;2252.80;;;;;;4826494;29;20083;-67
2021/11/26 03:46:16;;;;;;;32.15;19.92;;;180.10;2252.80;;;;;;4826792;29;20068;-67
2021/11/26 03:48:43;;;;;;;56.00;30.30;;;180.10;2252.80;;;;;;4826303;29;20050;-67
2021/11/26 03:51:10;;;;;;;39.15;24.35;;;180.10;2252.80;;;;;;4826375;29;20037;-67
2021/11/26 03:53:36;;;;;;;28.90;18.98;;;180.10;2252.80;;;;;;4826269;29;20063;-68
2021/11/26 03:56:02;;;;;;;31.92;20.38;;;180.10;2252.80;;;;;;4826542;29;20428;-67
2021/11/26 03:58:28;;;;;;;38.33;23.80;;;180.10;2252.80;;;;;;4826268;29;20027;-67
2021/11/26 04:00:54;;;;;;;26.90;18.63;;;180.10;2252.80;;;;;;4826247;29;20113;-67
2021/11/26 04:03:20;;;;;;;26.17;19.02;;;180.10;2252.80;;;;;;4826183;29;20113;-68
2021/11/26 04:05:45;;;;;;;23.95;17.88;;;204.80;2252.80;;;;;;4826156;29;20489;-67
2021/11/26 04:08:12;;;;;;;23.80;16.65;;;204.80;2252.80;;;;;;4809750;29;20488;-67
2021/11/26 04:10:37;;;;;;;27.63;17.90;;;204.80;2252.80;;;;;;4826092;29;20034;-67
2021/11/26 04:13:03;;;;;;;26.92;17.02;;;204.80;2252.80;;;;;;4826006;29;20424;-67
2021/11/26 04:15:33;;;;;;;26.90;17.48;;;204.80;2252.80;;;;;;4826049;29;20490;-67
2021/11/26 04:18:01;;;;;;;24.95;16.92;;;180.10;2252.80;;;;;;4825973;29;20023;-67
2021/11/26 04:20:28;;;;;;;25.65;17.38;;;204.80;2252.80;;;;;;4825932;29;20054;-68
2021/11/26 04:22:54;;;;;;;27.83;18.58;;;204.80;2252.80;;;;;;4825876;29;20036;-67
2021/11/26 04:25:21;;;;;;;30.15;18.67;;;204.80;2252.80;;;;;;4825817;29;20075;-67
2021/11/26 04:27:48;;;;;;;26.52;16.95;;;204.80;2252.80;;;;;;4825848;29;20547;-67
2021/11/26 04:30:16;;;;;;;28.88;17.13;;;204.80;2252.80;;;;;;4825782;29;20053;-67
2021/11/26 04:32:42;;;;;;;25.38;17.00;;;180.10;2252.80;;;;;;4825725;29;20030;-68
2021/11/26 04:35:10;;;;;;;24.42;16.27;;;204.80;2252.80;;;;;;4825728;29;20034;-67
2021/11/26 04:37:36;;;;;;;29.48;17.38;;;180.10;2252.80;;;;;;4826460;29;20406;-67
2021/11/26 04:40:05;;;;;;;25.38;15.95;;;180.10;2252.80;;;;;;4809468;29;20041;-67
2021/11/26 04:42:31;;;;;;;26.92;17.08;;;204.80;2252.80;;;;;;4809239;29;20053;-67
2021/11/26 04:44:58;;;;;;;25.33;17.17;;;204.80;2252.80;;;;;;4825613;29;20413;-67
2021/11/26 04:47:23;;;;;;;32.05;17.92;;;204.80;2252.80;;;;;;4825051;29;20069;-67
2021/11/26 04:49:49;;;;;;;25.92;17.45;;;204.80;2252.80;;;;;;4825529;29;20484;-67
2021/11/26 04:52:15;;;;;;;28.90;18.67;;;204.80;2252.80;;;;;;4825496;29;20034;-67
2021/11/26 04:54:41;;;;;;;27.20;18.73;;;204.80;2252.80;;;;;;4825291;29;20412;-67
2021/11/26 04:57:07;;;;;;;26.85;18.00;;;204.80;2252.80;;;;;;4825747;29;20113;-67
2021/11/26 04:59:33;;;;;;;26.17;17.15;;;204.80;2252.80;;;;;;4825722;29;20035;-67
2021/11/26 05:01:59;;;;;;;29.55;18.27;;;204.80;2252.80;;;;;;4825363;29;20027;-66
2021/11/26 05:04:25;;;;;;;26.77;18.20;;;204.80;2252.80;;;;;;4825348;29;20531;-67
2021/11/26 05:06:50;;;;;;;27.80;17.75;;;204.80;2252.80;;;;;;4825426;29;20049;-67
2021/11/26 05:09:16;;;;;;;26.17;17.10;;;204.80;2252.80;;;;;;4825159;29;20038;-67
2021/11/26 05:11:42;;;;;;;27.25;18.17;;;180.10;2252.80;;;;;;4824108;29;20391;-67
2021/11/26 05:14:09;;;;;;;25.27;17.17;;;180.10;2252.80;;;;;;4808626;29;20039;-67
2021/11/26 05:16:35;;;;;;;26.60;16.92;;;180.10;2252.80;;;;;;4825149;29;20075;-67
2021/11/26 05:19:01;;;;;;;26.50;16.70;;;180.00;2252.80;;;;;;4825111;29;20488;-68
2021/11/26 05:21:27;;;;;;;28.30;17.58;;;180.00;2252.80;;;;;;4824978;29;20038;-67
2021/11/26 05:23:54;;;;;;;32.15;17.73;;;180.00;2252.80;;;;;;4825092;29;20038;-67
2021/11/26 05:26:20;;;;;;;29.33;17.23;;;179.90;2252.80;;;;;;4824934;29;20037;-68
2021/11/26 05:28:46;;;;;;;29.33;19.48;;;179.90;2252.80;;;;;;4824884;29;20041;-67
2021/11/26 05:31:12;;;;;;;31.15;19.17;;;179.90;2252.80;;;;;;4824933;29;20419;-67
2021/11/26 05:33:38;;;;;;;34.67;19.13;;;179.90;2252.80;;;;;;4824999;29;20400;-67
2021/11/26 05:36:04;;;;;;;26.92;17.65;;;179.90;2252.80;;;;;;4824942;29;20031;-67
2021/11/26 05:38:29;;;;;;;29.33;17.65;;;179.90;2252.80;;;;;;4824747;29;20031;-67
2021/11/26 05:40:55;;;;;;;27.52;16.65;;;179.90;2252.80;;;;;;4808383;29;20041;-68
2021/11/26 05:43:21;;;;;;;28.65;17.42;;;179.90;2252.80;;;;;;4824729;29;20109;-67
2021/11/26 05:45:47;;;;;;;31.35;18.70;;;179.90;2252.80;;;;;;4824828;29;20038;-67
2021/11/26 05:48:13;;;;;;;24.65;16.20;;;179.90;2252.80;;;;;;4824318;29;20453;-67
2021/11/26 05:50:39;;;;;;;27.02;16.98;;;179.90;2252.80;;;;;;4824553;29;20030;-67
2021/11/26 05:53:05;;;;;;;25.17;16.42;;;180.00;2252.80;;;;;;4824554;29;20090;-66
2021/11/26 05:55:31;;;;;;;25.65;16.13;;;180.00;2252.80;;;;;;4824534;29;20113;-67
2021/11/26 05:57:59;;;;;;;27.10;17.17;;;180.00;2252.80;;;;;;4824518;29;20110;-66
2021/11/26 06:00:28;;;;;;;25.40;16.90;;;180.00;2252.80;;;;;;4805686;29;20039;-69
2021/11/26 06:02:54;;;;;;;27.20;17.73;;;180.00;2252.80;;;;;;4789975;29;20033;-67
2021/11/26 06:05:20;;;;;;;24.48;16.70;;;180.00;2252.80;;;;;;4806235;29;20095;-68
2021/11/26 06:07:46;;;;;;;27.48;18.10;;;180.10;2252.80;;;;;;4806089;29;20033;-67
2021/11/26 06:10:14;;;;;;;25.77;16.15;;;180.10;2252.80;;;;;;4806218;29;20114;-67
2021/11/26 06:12:42;;;;;;;22.90;16.02;;;180.10;2252.80;;;;;;4806055;29;20068;-67
2021/11/26 06:15:10;;;;;;;24.15;15.98;;;180.10;2252.80;;;;;;4806107;29;20063;-67
2021/11/26 06:17:37;;;;;;;30.45;17.15;;;180.10;2252.80;;;;;;4806125;29;20102;-67
2021/11/26 06:20:04;;;;;;;28.58;15.95;;;180.10;2252.80;;;;;;4813977;29;20064;-67
2021/11/26 06:22:30;;;;;;;24.35;16.27;;;180.10;2252.80;;;;;;4823240;29;20130;-67
2021/11/26 06:24:56;;;;;;;25.88;16.10;;;180.10;2252.80;;;;;;4824221;29;20468;-67
2021/11/26 06:27:21;;;;;;;27.92;16.50;;;204.80;2252.80;;;;;;4824066;29;20026;-67
2021/11/26 06:29:47;;;;;;;25.63;16.60;;;204.80;2252.80;;;;;;4824857;29;20034;-67
2021/11/26 06:32:13;;;;;;;31.13;17.15;;;204.80;2252.80;;;;;;4824333;29;20034;-68
2021/11/26 06:34:39;;;;;;;25.15;15.88;;;204.80;2252.80;;;;;;4824390;29;20043;-67
2021/11/26 06:37:05;;;;;;;28.05;16.88;;;180.10;2252.80;;;;;;4824208;29;20109;-67
2021/11/26 06:39:31;;;;;;;21.65;14.93;;;204.80;2252.80;;;;;;4824107;29;20077;-66
2021/11/26 06:41:58;;;;;;;25.00;16.52;;;204.80;2252.80;;;;;;4824094;29;20039;-68
2021/11/26 06:44:25;;;;;;;28.65;16.02;;;204.80;2252.80;;;;;;4824091;29;20041;-67
2021/11/26 06:46:51;;;;;;;27.13;17.60;;;204.80;2252.80;;;;;;4824104;29;20034;-68
2021/11/26 06:49:17;;;;;;;26.02;16.10;;;204.80;2252.80;;;;;;4823896;29;20522;-67
2021/11/26 06:51:43;;;;;;;25.52;15.90;;;204.80;2252.80;;;;;;4824046;29;20035;-68
2021/11/26 06:54:09;;;;;;;29.13;16.55;;;204.90;2252.80;;;;;;4823959;29;20053;-67
2021/11/26 06:56:35;;;;;;;28.42;17.48;;;204.90;2252.80;;;;;;4823972;29;20053;-67
2021/11/26 06:59:03;;;;;;;28.80;17.73;;;204.90;2252.80;;;;;;4824021;29;20476;-67
2021/11/26 07:01:30;;;;;;;28.10;17.55;;;204.90;2252.80;;;;;;4823973;29;20429;-67
2021/11/26 07:03:56;;;;;;;26.90;17.27;;;204.90;2252.80;;;;;;4823919;29;20484;-67
2021/11/26 07:06:23;;;;;;;34.47;19.58;;;204.90;2252.80;;;;;;4824138;29;20095;-67
2021/11/26 07:08:49;;;;;;;24.55;16.65;;;204.90;2252.80;;;;;;4824052;29;20556;-67
2021/11/26 07:11:15;;;;;;;25.42;17.70;;;205.00;2252.80;;;;;;4826040;29;20026;-67
2021/11/26 07:13:41;;;;;;;24.50;16.65;;;205.00;2252.80;;;;;;4826955;29;20086;-68
2021/11/26 07:16:07;;;;;;;28.02;16.73;;;205.00;2252.80;;;;;;4826894;29;20038;-67
2021/11/26 07:18:33;;;;;;;25.15;16.30;;;205.00;2252.80;;;;;;4826934;29;20122;-67
2021/11/26 07:20:59;;;;;;;25.27;16.08;;;205.00;2252.80;;;;;;4826782;29;20481;-66
2021/11/26 07:23:25;;;;;;;25.55;16.08;;;205.00;2252.80;;;;;;4826830;29;20511;-67
2021/11/26 07:25:51;;;;;;;38.22;17.50;;;205.00;2252.80;;;;;;4827036;29;20070;-67
2021/11/26 07:28:17;;;;;;;31.63;18.20;;;205.10;2252.80;;;;;;4826462;29;20034;-68
2021/11/26 07:30:43;;;;;;;45.83;21.17;;;205.10;2252.80;;;;;;4826562;29;20030;-68
2021/11/26 07:33:09;;;;;;;31.00;15.48;;;205.10;2252.80;;;;;;4826323;29;20065;-68
2021/11/26 07:35:35;;;;;;;34.10;18.60;;;205.20;2252.80;;;;;;4826745;29;20061;-68
2021/11/26 07:38:01;;;;;;;40.92;19.80;;;205.20;2252.80;;;;;;4826611;29;20030;-68
2021/11/26 07:40:27;;;;;;;50.85;23.02;;;205.20;2252.80;;;;;;4826588;29;20046;-68
2021/11/26 07:42:53;;;;;;;37.47;18.05;;;205.30;2252.80;;;;;;4826535;29;20045;-74
2021/11/26 07:45:19;;;;;;;45.45;21.42;;;205.30;2252.80;;;;;;4826526;29;20477;-68
2021/11/26 07:47:46;;;;;;;35.30;19.75;;;205.30;2252.80;;;;;;4826456;29;20427;-68
2021/11/26 07:50:13;;;;;;;31.17;18.73;;;205.30;2252.80;;;;;;4826261;29;20437;-69
2021/11/26 07:52:41;;;;;;;41.30;22.70;;;205.30;2252.80;;;;;;4825830;29;20079;-68
2021/11/26 07:55:08;;;;;;;32.05;18.67;;;205.30;2252.80;;;;;;4825506;29;20045;-68
2021/11/26 07:57:35;;;;;;;27.95;16.67;;;205.30;2252.80;;;;;;4825678;29;20495;-68
2021/11/26 08:00:05;;;;;;;28.15;16.55;;;205.30;2252.80;;;;;;4824894;29;20056;-68
2021/11/26 08:02:31;;;;;;;34.05;18.30;;;205.40;2252.80;;;;;;4826320;29;20392;-68
2021/11/26 08:04:57;;;;;;;38.40;21.35;;;205.40;2252.80;;;;;;4826051;29;20039;-67
2021/11/26 08:07:23;;;;;;;31.05;17.88;;;205.40;2252.80;;;;;;4825941;29;20087;-69
2021/11/26 08:09:49;;;;;;;23.10;14.40;;;205.40;2252.80;;;;;;4825198;29;20040;-68
2021/11/26 08:12:15;;;;;;;22.88;14.88;;;205.50;2252.80;;;;;;4825540;29;20091;-68
2021/11/26 08:14:40;;;;;;;39.67;20.83;;;205.50;2252.80;;;;;;4825015;29;20046;-68
2021/11/26 08:17:06;;;;;;;28.55;16.85;;;205.50;2252.80;;;;;;4825342;29;20031;-68
2021/11/26 08:19:32;;;;;;;46.85;21.73;;;205.60;2252.80;;;;;;4825921;29;20086;-68
2021/11/26 08:21:58;;;;;;;29.52;15.57;;;205.70;2252.80;;;;;;4824264;29;20056;-68
2021/11/26 08:24:25;;;;;;;33.22;18.92;;;205.70;2252.80;;;;;;4824659;29;20027;-68
2021/11/26 08:26:51;;;;;;;22.95;15.35;;;205.70;2252.80;;;;;;4824355;29;20049;-67
2021/11/26 08:29:17;;;;;;;45.33;23.48;;;230.40;2252.80;;;;;;4824434;29;20469;-67
2021/11/26 08:31:43;;;;;;;32.90;18.77;;;230.40;2252.80;;;;;;4807994;29;20102;-67
2021/11/26 08:34:09;;;;;;;44.38;23.60;;;230.50;2252.80;;;;;;4824544;29;20547;-68
2021/11/26 08:36:36;;;;;;;34.90;20.80;;;230.50;2252.80;;;;;;4824513;29;20037;-68
2021/11/26 08:39:05;;;;;;;31.38;19.48;;;230.60;2252.80;;;;;;4824938;29;20134;-68
2021/11/26 08:41:31;;;;;;;34.03;19.23;;;230.60;2252.80;;;;;;4824598;29;20026;-67
2021/11/26 08:43:57;;;;;;;33.55;20.08;;;230.60;2252.80;;;;;;4824712;29;20503;-68
2021/11/26 08:46:23;;;;;;;21.92;14.75;;;230.50;2252.80;;;;;;4824564;29;20053;-68
2021/11/26 08:48:49;;;;;;;25.25;16.25;;;230.50;2252.80;;;;;;4824458;29;20062;-68
2021/11/26 08:51:16;;;;;;;21.90;14.93;;;230.40;2252.80;;;;;;4824563;29;20045;-68
2021/11/26 08:53:46;;;;;;;20.17;14.57;;;230.40;2252.80;;;;;;4824344;29;20034;-68
2021/11/26 08:56:13;;;;;;;19.38;13.55;;;230.40;2252.80;;;;;;4824448;29;20097;-68
2021/11/26 08:58:40;;;;;;;20.45;12.93;;;230.40;2252.80;;;;;;4824317;29;20049;-69
2021/11/26 09:01:07;;;;;;;20.30;13.10;;;205.70;2252.80;;;;;;4824417;29;20023;-67
2021/11/26 09:03:34;;;;;;;26.73;14.00;;;205.70;2252.80;;;;;;4824356;29;20480;-68
2021/11/26 09:06:00;;;;;;;27.58;15.23;;;205.70;2252.80;;;;;;4824316;29;20027;-68
2021/11/26 09:08:26;;;;;;;23.63;14.45;;;205.60;2252.80;;;;;;4824305;29;20034;-67
2021/11/26 09:10:53;;;;;;;31.38;16.98;;;205.60;2252.80;;;;;;4824202;29;20495;-68
2021/11/26 09:13:19;;;;;;;29.88;16.55;;;205.50;2252.80;;;;;;4824119;29;20046;-68
2021/11/26 09:15:45;;;;;;;24.15;14.40;;;205.50;2252.80;;;;;;4824281;29;20087;-68
2021/11/26 09:18:14;;;;;;;25.42;16.00;;;205.50;2252.80;;;;;;4824175;29;20105;-68
2021/11/26 09:20:41;;;;;;;24.08;15.30;;;205.50;2252.80;;;;;;4824026;29;20030;-66
2021/11/26 09:23:09;;;;;;;23.00;14.65;;;205.40;2252.80;;;;;;4824126;29;20033;-67
2021/11/26 09:25:36;;;;;;;24.02;15.20;;;205.30;2252.80;;;;;;4824147;29;20101;-67
2021/11/26 09:28:02;;;;;;;25.17;15.30;;;205.30;2252.80;;;;;;4823971;29;20030;-67
2021/11/26 09:30:30;;;;;;;30.17;16.42;;;205.20;2252.80;;;;;;4824034;29;20038;-68
2021/11/26 09:32:58;;;;;;;29.52;15.38;;;205.10;2252.80;;;;;;4824440;29;20037;-70
2021/11/26 09:35:25;;;;;;;28.90;18.23;;;205.10;2252.80;;;;;;4823633;29;20385;-67
2021/11/26 09:37:52;;;;;;;29.48;18.83;;;205.00;2252.80;;;;;;4823629;29;20023;-67
2021/11/26 09:40:19;;;;;;;38.53;20.65;;;205.00;2252.80;;;;;;4807881;29;20076;-67
2021/11/26 09:42:45;;;;;;;29.38;18.95;;;204.90;2252.80;;;;;;4823285;29;20563;-68
2021/11/26 09:45:16;;;;;;;28.60;18.98;;;204.90;2252.80;;;;;;4824659;29;20117;-68
2021/11/26 09:47:42;;;;;;;26.60;18.08;;;204.90;2252.80;;;;;;4824640;29;20408;-67
2021/11/26 09:50:09;;;;;;;24.88;17.52;;;204.80;2252.80;;;;;;4824620;29;20034;-67
2021/11/26 09:52:39;;;;;;;32.92;20.75;;;204.90;2252.80;;;;;;4824588;29;20032;-68
2021/11/26 09:55:07;;;;;;;38.70;21.98;;;204.80;2252.80;;;;;;4824579;29;20031;-67
2021/11/26 09:57:34;;;;;;;29.55;19.27;;;180.10;2252.80;;;;;;4824574;29;20610;-67
2021/11/26 10:00:00;;;;;;;34.30;19.58;;;180.10;2252.80;;;;;;4824518;29;20075;-69
2021/11/26 10:02:26;;;;;;;28.23;18.02;;;180.10;2252.80;;;;;;4824505;29;20516;-68
2021/11/26 10:05:08;;;;;;;36.22;20.13;;;204.80;2252.80;;;;;;4807885;29;20113;-68
2021/11/26 10:07:52;;;;;;;29.75;18.70;;;180.10;2252.80;;;;;;4824479;29;20033;-68
2021/11/26 10:10:32;;;;;;;35.17;22.30;;;204.80;2252.80;;;;;;4824495;29;20027;-66
2021/11/26 10:13:09;;;;;;;39.92;23.90;;;204.80;2252.80;;;;;;4824432;29;20496;-66
2021/11/26 10:15:42;;;;;;;42.63;25.20;;;204.80;2252.80;;;;;;4824437;29;20031;-67
2021/11/26 10:18:17;;;;;;;38.47;25.02;;;204.80;2252.80;;;;;;4824590;29;20109;-67
2021/11/26 10:21:04;;;;;;;43.40;26.30;;;180.10;2252.80;;;;;;4824426;29;20026;-67
2021/11/26 10:23:37;;;;;;;39.22;24.60;;;204.80;2252.80;;;;;;4824298;29;20026;-67
2021/11/26 10:26:18;;;;;;;39.88;26.05;;;204.80;2252.80;;;;;;4824312;29;20030;-67
2021/11/26 10:28:49;;;;;;;36.00;23.25;;;180.10;2252.80;;;;;;4824251;29;20026;-67
2021/11/26 10:31:25;;;;;;;29.90;19.98;;;180.10;2252.80;;;;;;4824296;29;20035;-67
2021/11/26 10:33:56;;;;;;;33.65;19.95;;;180.10;2252.80;;;;;;4824095;29;20413;-67
2021/11/26 10:36:22;;;;;;;28.63;19.90;;;180.10;2252.80;;;;;;4824199;29;20026;-67
2021/11/26 10:38:49;;;;;;;30.92;20.67;;;180.10;2252.80;;;;;;4824146;29;20039;-67
2021/11/26 10:41:22;;;;;;;29.20;19.98;;;204.80;2252.80;;;;;;4824097;29;20034;-66
2021/11/26 10:43:52;;;;;;;26.55;19.02;;;204.80;2252.80;;;;;;4824152;29;20035;-67
2021/11/26 10:47:07;;;;;;;28.90;19.45;;;204.80;2252.80;;;;;;4826464;29;20026;-67
2021/11/26 11:00:04;;;;;;;32.05;20.27;;;205.00;2252.80;;;;;;4827505;29;20460;-68
2021/11/26 11:02:36;;;;;;;35.97;24.13;;;205.00;2252.80;;;;;;4827178;29;20034;-67
2021/11/26 11:05:09;;;;;;;35.20;23.17;;;205.00;2252.80;;;;;;4810840;29;20041;-66
2021/11/26 11:07:43;;;;;;;31.83;21.23;;;205.10;2252.80;;;;;;4826657;29;20034;-66
2021/11/26 11:10:14;;;;;;;33.85;23.42;;;205.10;2252.80;;;;;;4826960;29;20536;-66
2021/11/26 11:12:39;;;;;;;35.00;24.17;;;205.10;2252.80;;;;;;4826957;29;20038;-67
2021/11/26 11:15:11;;;;;;;34.95;24.42;;;205.10;2252.80;;;;;;4826886;29;20043;-67
2021/11/26 11:17:38;;;;;;;35.25;23.35;;;205.10;2252.80;;;;;;4826884;29;20062;-67
2021/11/26 11:20:10;;;;;;;37.05;23.98;;;205.00;2252.80;;;;;;4826747;29;20511;-66
2021/11/26 11:22:38;;;;;;;34.90;22.75;;;205.00;2252.80;;;;;;4826919;29;20030;-68
2021/11/26 11:25:06;;;;;;;32.28;22.45;;;204.90;2252.80;;;;;;4826722;29;20503;-67
2021/11/26 11:27:32;;;;;;;31.25;22.00;;;204.90;2252.80;;;;;;4826621;29;20043;-68
2021/11/26 11:29:58;;;;;;;29.70;19.90;;;204.90;2252.80;;;;;;4826606;29;20376;-68
2021/11/26 11:32:26;;;;;;;33.85;21.77;;;205.00;2252.80;;;;;;4826490;29;20114;-67
2021/11/26 11:34:54;;;;;;;73.05;22.60;;;205.00;2252.80;;;;;;4825835;29;20105;-67
2021/11/26 11:37:27;;;;;;;29.17;20.52;;;205.00;2252.80;;;;;;4825304;29;20115;-68
2021/11/26 11:39:58;;;;;;;31.27;20.92;;;205.00;2252.80;;;;;;4806881;29;20087;-67
2021/11/26 11:42:43;;;;;;;31.60;19.98;;;205.10;2252.80;;;;;;4825295;29;20023;-68
2021/11/26 11:45:18;;;;;;;30.52;21.77;;;205.10;2252.80;;;;;;4824798;29;20030;-68
2021/11/26 11:47:47;;;;;;;36.85;22.30;;;205.10;2252.80;;;;;;4824955;29;20107;-74
2021/11/26 11:50:28;;;;;;;33.13;22.40;;;205.10;2252.80;;;;;;4823076;29;20481;-67
2021/11/26 11:53:00;;;;;;;28.20;20.70;;;205.10;2252.80;;;;;;4822805;29;20075;-67
2021/11/26 11:55:38;;;;;;;34.33;22.45;;;205.10;2252.80;;;;;;4825066;29;20030;-66
2021/11/26 11:58:16;;;;;;;32.97;21.52;;;205.10;2252.80;;;;;;4823051;29;20046;-65
2021/11/26 12:00:44;;;;;;;36.05;21.52;;;205.10;2252.80;;;;;;4807832;29;20485;-65
2021/11/26 12:03:22;;;;;;;35.95;22.65;;;205.20;2252.80;;;;;;4824993;29;20026;-69
2021/11/26 12:05:59;;;;;;;34.42;20.85;;;205.30;2252.80;;;;;;4824827;29;20504;-66
2021/11/26 12:08:26;;;;;;;32.40;20.08;;;205.30;2252.80;;;;;;4823753;29;20488;-66
2021/11/26 12:10:56;;;;;;;31.70;22.25;;;205.30;2252.80;;;;;;4824814;29;20026;-72